sensor_id;sensor_type;location;lat;lon;timestamp;P1;durP1;ratioP1;P2;durP2;ratioP2
71810;SDS011;59657;0.000;0.000;2023-02-15T00:02:19;2.10;;;1.55;;
71810;SDS011;59657;0.000;0.000;2023-02-15T00:04:46;2.17;;;1.55;;
71810;SDS011;59657;0.000;0.000;2023-02-15T00:09:39;1.50;;;1.35;;
71810;SDS011;59657;0.000;0.000;2023-02-15T00:12:05;1.70;;;1.60;;
71810;SDS011;59657;0.000;0.000;2023-02-15T00:14:32;1.17;;;1.17;;
71810;SDS011;59657;0.000;0.000;2023-02-15T00:19:25;1.92;;;1.75;;
71810;SDS011;59657;0.000;0.000;2023-02-15T00:21:51;2.28;;;1.60;;
71810;SDS011;59657;0.000;0.000;2023-02-15T00:24:18;1.45;;;1.35;;
71810;SDS011;59657;0.000;0.000;2023-02-15T00:26:45;1.73;;;1.63;;
71810;SDS011;59657;0.000;0.000;2023-02-15T00:29:12;1.73;;;1.63;;
71810;SDS011;59657;0.000;0.000;2023-02-15T00:31:39;1.52;;;1.42;;
71810;SDS011;59657;0.000;0.000;2023-02-15T00:34:16;1.58;;;1.48;;
71810;SDS011;59657;0.000;0.000;2023-02-15T00:36:43;1.42;;;1.33;;
71810;SDS011;59657;0.000;0.000;2023-02-15T00:39:10;1.90;;;1.75;;
71810;SDS011;59657;0.000;0.000;2023-02-15T00:41:37;1.25;;;1.25;;
71810;SDS011;59657;0.000;0.000;2023-02-15T00:46:29;2.22;;;1.83;;
71810;SDS011;59657;0.000;0.000;2023-02-15T00:48:56;1.38;;;1.27;;
71810;SDS011;59657;0.000;0.000;2023-02-15T00:51:23;1.15;;;1.15;;
71810;SDS011;59657;0.000;0.000;2023-02-15T00:53:50;1.48;;;1.38;;
71810;SDS011;59657;0.000;0.000;2023-02-15T00:56:16;2.30;;;2.20;;
71810;SDS011;59657;0.000;0.000;2023-02-15T00:58:43;1.63;;;1.52;;
71810;SDS011;59657;0.000;0.000;2023-02-15T01:01:11;1.42;;;1.33;;
71810;SDS011;59657;0.000;0.000;2023-02-15T01:03:38;1.48;;;1.38;;
71810;SDS011;59657;0.000;0.000;2023-02-15T01:06:06;1.75;;;1.65;;
71810;SDS011;59657;0.000;0.000;2023-02-15T01:08:33;1.17;;;1.17;;
71810;SDS011;59657;0.000;0.000;2023-02-15T01:11:08;1.50;;;1.50;;
71810;SDS011;59657;0.000;0.000;2023-02-15T01:13:35;1.27;;;1.25;;
71810;SDS011;59657;0.000;0.000;2023-02-15T01:16:02;1.08;;;1.08;;
71810;SDS011;59657;0.000;0.000;2023-02-15T01:18:29;1.42;;;1.33;;
71810;SDS011;59657;0.000;0.000;2023-02-15T01:20:55;1.55;;;1.45;;
71810;SDS011;59657;0.000;0.000;2023-02-15T01:23:22;1.25;;;1.25;;
71810;SDS011;59657;0.000;0.000;2023-02-15T01:25:49;1.52;;;1.52;;
71810;SDS011;59657;0.000;0.000;2023-02-15T01:28:16;1.35;;;1.35;;
71810;SDS011;59657;0.000;0.000;2023-02-15T01:30:42;0.80;;;0.80;;
71810;SDS011;59657;0.000;0.000;2023-02-15T01:35:43;1.17;;;1.17;;
71810;SDS011;59657;0.000;0.000;2023-02-15T01:38:10;1.10;;;1.10;;
71810;SDS011;59657;0.000;0.000;2023-02-15T01:40:37;1.10;;;1.10;;
71810;SDS011;59657;0.000;0.000;2023-02-15T01:43:09;1.00;;;1.00;;
71810;SDS011;59657;0.000;0.000;2023-02-15T01:45:35;1.08;;;1.08;;
71810;SDS011;59657;0.000;0.000;2023-02-15T01:48:05;1.52;;;1.40;;
71810;SDS011;59657;0.000;0.000;2023-02-15T01:50:34;1.60;;;1.50;;
71810;SDS011;59657;0.000;0.000;2023-02-15T01:53:06;1.35;;;1.35;;
71810;SDS011;59657;0.000;0.000;2023-02-15T01:55:39;1.48;;;1.40;;
71810;SDS011;59657;0.000;0.000;2023-02-15T01:58:06;1.17;;;1.17;;
71810;SDS011;59657;0.000;0.000;2023-02-15T02:00:34;1.27;;;1.17;;
71810;SDS011;59657;0.000;0.000;2023-02-15T02:03:00;1.23;;;1.17;;
71810;SDS011;59657;0.000;0.000;2023-02-15T02:05:28;1.17;;;1.17;;
71810;SDS011;59657;0.000;0.000;2023-02-15T02:07:56;1.58;;;1.52;;
71810;SDS011;59657;0.000;0.000;2023-02-15T02:10:23;1.08;;;1.08;;
71810;SDS011;59657;0.000;0.000;2023-02-15T02:12:52;0.95;;;0.95;;
71810;SDS011;59657;0.000;0.000;2023-02-15T02:15:22;1.08;;;1.05;;
71810;SDS011;59657;0.000;0.000;2023-02-15T02:23:16;1.08;;;1.08;;
71810;SDS011;59657;0.000;0.000;2023-02-15T02:25:52;1.05;;;1.02;;
71810;SDS011;59657;0.000;0.000;2023-02-15T02:31:22;1.52;;;1.30;;
71810;SDS011;59657;0.000;0.000;2023-02-15T02:34:05;1.13;;;1.13;;
71810;SDS011;59657;0.000;0.000;2023-02-15T02:39:26;0.73;;;0.73;;
71810;SDS011;59657;0.000;0.000;2023-02-15T02:41:59;2.08;;;2.08;;
71810;SDS011;59657;0.000;0.000;2023-02-15T02:44:43;0.77;;;0.77;;
71810;SDS011;59657;0.000;0.000;2023-02-15T02:47:16;1.35;;;1.25;;
71810;SDS011;59657;0.000;0.000;2023-02-15T02:49:45;1.77;;;1.67;;
71810;SDS011;59657;0.000;0.000;2023-02-15T02:54:51;1.08;;;1.08;;
71810;SDS011;59657;0.000;0.000;2023-02-15T02:57:18;1.20;;;1.20;;
71810;SDS011;59657;0.000;0.000;2023-02-15T02:59:45;1.40;;;1.40;;
71810;SDS011;59657;0.000;0.000;2023-02-15T03:02:21;1.70;;;1.60;;
71810;SDS011;59657;0.000;0.000;2023-02-15T03:04:49;1.33;;;1.27;;
71810;SDS011;59657;0.000;0.000;2023-02-15T03:07:23;1.38;;;1.30;;
71810;SDS011;59657;0.000;0.000;2023-02-15T03:09:51;1.33;;;1.25;;
71810;SDS011;59657;0.000;0.000;2023-02-15T03:12:20;1.38;;;1.27;;
71810;SDS011;59657;0.000;0.000;2023-02-15T03:14:48;1.05;;;1.05;;
71810;SDS011;59657;0.000;0.000;2023-02-15T03:17:16;1.00;;;1.00;;
71810;SDS011;59657;0.000;0.000;2023-02-15T03:19:44;1.13;;;1.13;;
71810;SDS011;59657;0.000;0.000;2023-02-15T03:22:14;1.23;;;1.23;;
71810;SDS011;59657;0.000;0.000;2023-02-15T03:24:51;1.40;;;1.40;;
71810;SDS011;59657;0.000;0.000;2023-02-15T03:27:20;1.48;;;1.48;;
71810;SDS011;59657;0.000;0.000;2023-02-15T03:29:50;0.93;;;0.93;;
71810;SDS011;59657;0.000;0.000;2023-02-15T03:32:18;0.90;;;0.90;;
71810;SDS011;59657;0.000;0.000;2023-02-15T03:34:45;1.65;;;1.55;;
71810;SDS011;59657;0.000;0.000;2023-02-15T03:39:52;1.65;;;1.50;;
71810;SDS011;59657;0.000;0.000;2023-02-15T03:42:29;1.33;;;1.33;;
71810;SDS011;59657;0.000;0.000;2023-02-15T03:44:59;1.48;;;1.42;;
71810;SDS011;59657;0.000;0.000;2023-02-15T03:47:30;1.42;;;1.33;;
71810;SDS011;59657;0.000;0.000;2023-02-15T03:50:00;1.63;;;1.52;;
71810;SDS011;59657;0.000;0.000;2023-02-15T03:52:28;1.77;;;1.67;;
71810;SDS011;59657;0.000;0.000;2023-02-15T03:54:55;2.40;;;2.30;;
71810;SDS011;59657;0.000;0.000;2023-02-15T03:57:23;2.08;;;1.83;;
71810;SDS011;59657;0.000;0.000;2023-02-15T04:00:00;2.30;;;1.85;;
71810;SDS011;59657;0.000;0.000;2023-02-15T04:02:45;2.83;;;1.92;;
71810;SDS011;59657;0.000;0.000;2023-02-15T04:05:18;5.30;;;2.47;;
71810;SDS011;59657;0.000;0.000;2023-02-15T04:10:11;3.15;;;2.20;;
71810;SDS011;59657;0.000;0.000;2023-02-15T04:12:50;3.65;;;2.33;;
71810;SDS011;59657;0.000;0.000;2023-02-15T04:15:16;2.15;;;1.95;;
71810;SDS011;59657;0.000;0.000;2023-02-15T04:18:02;3.25;;;2.03;;
71810;SDS011;59657;0.000;0.000;2023-02-15T04:20:28;1.83;;;1.73;;
71810;SDS011;59657;0.000;0.000;2023-02-15T04:23:10;1.50;;;1.50;;
71810;SDS011;59657;0.000;0.000;2023-02-15T04:25:50;2.28;;;2.17;;
71810;SDS011;59657;0.000;0.000;2023-02-15T04:30:42;1.90;;;1.80;;
71810;SDS011;59657;0.000;0.000;2023-02-15T04:35:35;1.67;;;1.58;;
71810;SDS011;59657;0.000;0.000;2023-02-15T04:38:02;1.67;;;1.58;;
71810;SDS011;59657;0.000;0.000;2023-02-15T04:40:29;1.88;;;1.77;;
71810;SDS011;59657;0.000;0.000;2023-02-15T04:42:55;1.85;;;1.75;;
71810;SDS011;59657;0.000;0.000;2023-02-15T04:45:22;1.88;;;1.77;;
71810;SDS011;59657;0.000;0.000;2023-02-15T04:47:48;2.13;;;2.03;;
71810;SDS011;59657;0.000;0.000;2023-02-15T04:50:15;1.60;;;1.50;;
71810;SDS011;59657;0.000;0.000;2023-02-15T04:55:07;1.75;;;1.65;;
71810;SDS011;59657;0.000;0.000;2023-02-15T04:57:34;1.58;;;1.48;;
71810;SDS011;59657;0.000;0.000;2023-02-15T05:02:27;1.70;;;1.60;;
71810;SDS011;59657;0.000;0.000;2023-02-15T05:04:53;1.88;;;1.77;;
71810;SDS011;59657;0.000;0.000;2023-02-15T05:07:20;2.00;;;1.90;;
71810;SDS011;59657;0.000;0.000;2023-02-15T05:09:46;1.83;;;1.73;;
71810;SDS011;59657;0.000;0.000;2023-02-15T05:14:39;1.50;;;1.40;;
71810;SDS011;59657;0.000;0.000;2023-02-15T05:17:06;1.65;;;1.55;;
71810;SDS011;59657;0.000;0.000;2023-02-15T05:19:32;1.58;;;1.48;;
71810;SDS011;59657;0.000;0.000;2023-02-15T05:21:59;1.85;;;1.75;;
71810;SDS011;59657;0.000;0.000;2023-02-15T05:24:25;1.58;;;1.48;;
71810;SDS011;59657;0.000;0.000;2023-02-15T05:27:10;1.73;;;1.63;;
71810;SDS011;59657;0.000;0.000;2023-02-15T05:29:50;1.48;;;1.48;;
71810;SDS011;59657;0.000;0.000;2023-02-15T05:32:16;1.60;;;1.50;;
71810;SDS011;59657;0.000;0.000;2023-02-15T05:34:43;1.75;;;1.65;;
71810;SDS011;59657;0.000;0.000;2023-02-15T05:37:09;1.20;;;1.20;;
71810;SDS011;59657;0.000;0.000;2023-02-15T05:39:36;1.52;;;1.50;;
71810;SDS011;59657;0.000;0.000;2023-02-15T05:42:03;1.60;;;1.50;;
71810;SDS011;59657;0.000;0.000;2023-02-15T05:44:29;1.65;;;1.58;;
71810;SDS011;59657;0.000;0.000;2023-02-15T05:46:56;1.38;;;1.27;;
71810;SDS011;59657;0.000;0.000;2023-02-15T05:49:22;1.45;;;1.35;;
71810;SDS011;59657;0.000;0.000;2023-02-15T05:51:49;1.48;;;1.48;;
71810;SDS011;59657;0.000;0.000;2023-02-15T05:54:15;1.35;;;1.35;;
71810;SDS011;59657;0.000;0.000;2023-02-15T05:56:42;1.67;;;1.58;;
71810;SDS011;59657;0.000;0.000;2023-02-15T05:59:08;2.35;;;2.25;;
71810;SDS011;59657;0.000;0.000;2023-02-15T06:01:35;1.98;;;1.88;;
71810;SDS011;59657;0.000;0.000;2023-02-15T06:04:01;1.92;;;1.83;;
71810;SDS011;59657;0.000;0.000;2023-02-15T06:06:28;1.48;;;1.48;;
71810;SDS011;59657;0.000;0.000;2023-02-15T06:08:54;1.45;;;1.35;;
71810;SDS011;59657;0.000;0.000;2023-02-15T06:11:21;1.45;;;1.35;;
71810;SDS011;59657;0.000;0.000;2023-02-15T06:13:47;1.30;;;1.30;;
71810;SDS011;59657;0.000;0.000;2023-02-15T06:16:14;1.27;;;1.27;;
71810;SDS011;59657;0.000;0.000;2023-02-15T06:18:41;1.73;;;1.48;;
71810;SDS011;59657;0.000;0.000;2023-02-15T06:21:08;2.35;;;1.75;;
71810;SDS011;59657;0.000;0.000;2023-02-15T06:23:34;2.03;;;1.63;;
71810;SDS011;59657;0.000;0.000;2023-02-15T06:26:01;1.90;;;1.75;;
71810;SDS011;59657;0.000;0.000;2023-02-15T06:28:27;2.95;;;1.60;;
71810;SDS011;59657;0.000;0.000;2023-02-15T06:30:54;1.83;;;1.70;;
71810;SDS011;59657;0.000;0.000;2023-02-15T06:33:21;2.03;;;1.63;;
71810;SDS011;59657;0.000;0.000;2023-02-15T06:35:47;1.45;;;1.38;;
71810;SDS011;59657;0.000;0.000;2023-02-15T06:38:14;1.55;;;1.40;;
71810;SDS011;59657;0.000;0.000;2023-02-15T06:40:41;2.08;;;1.88;;
71810;SDS011;59657;0.000;0.000;2023-02-15T06:43:07;2.15;;;2.00;;
71810;SDS011;59657;0.000;0.000;2023-02-15T06:45:34;1.67;;;1.58;;
71810;SDS011;59657;0.000;0.000;2023-02-15T06:48:00;1.77;;;1.58;;
71810;SDS011;59657;0.000;0.000;2023-02-15T06:50:27;1.48;;;1.48;;
71810;SDS011;59657;0.000;0.000;2023-02-15T06:52:55;1.65;;;1.55;;
71810;SDS011;59657;0.000;0.000;2023-02-15T06:55:22;1.52;;;1.42;;
71810;SDS011;59657;0.000;0.000;2023-02-15T06:57:48;1.50;;;1.40;;
71810;SDS011;59657;0.000;0.000;2023-02-15T07:00:15;1.90;;;1.80;;
71810;SDS011;59657;0.000;0.000;2023-02-15T07:02:43;1.40;;;1.40;;
71810;SDS011;59657;0.000;0.000;2023-02-15T07:05:09;1.50;;;1.50;;
71810;SDS011;59657;0.000;0.000;2023-02-15T07:07:36;1.40;;;1.30;;
71810;SDS011;59657;0.000;0.000;2023-02-15T07:10:02;1.77;;;1.67;;
71810;SDS011;59657;0.000;0.000;2023-02-15T07:15:12;1.27;;;1.27;;
71810;SDS011;59657;0.000;0.000;2023-02-15T07:17:39;1.35;;;1.25;;
71810;SDS011;59657;0.000;0.000;2023-02-15T07:22:33;1.17;;;1.17;;
71810;SDS011;59657;0.000;0.000;2023-02-15T07:25:01;1.25;;;1.25;;
71810;SDS011;59657;0.000;0.000;2023-02-15T07:27:28;1.25;;;1.25;;
71810;SDS011;59657;0.000;0.000;2023-02-15T07:29:55;1.73;;;1.63;;
71810;SDS011;59657;0.000;0.000;2023-02-15T07:32:21;1.38;;;1.38;;
71810;SDS011;59657;0.000;0.000;2023-02-15T07:34:48;1.42;;;1.33;;
71810;SDS011;59657;0.000;0.000;2023-02-15T07:37:14;1.63;;;1.52;;
71810;SDS011;59657;0.000;0.000;2023-02-15T07:39:41;1.35;;;1.35;;
71810;SDS011;59657;0.000;0.000;2023-02-15T07:42:07;2.03;;;1.73;;
71810;SDS011;59657;0.000;0.000;2023-02-15T07:44:34;1.83;;;1.73;;
71810;SDS011;59657;0.000;0.000;2023-02-15T07:47:00;1.70;;;1.70;;
71810;SDS011;59657;0.000;0.000;2023-02-15T07:49:27;2.35;;;2.25;;
71810;SDS011;59657;0.000;0.000;2023-02-15T07:51:53;1.38;;;1.27;;
71810;SDS011;59657;0.000;0.000;2023-02-15T07:54:20;1.90;;;1.80;;
71810;SDS011;59657;0.000;0.000;2023-02-15T07:56:46;1.38;;;1.08;;
71810;SDS011;59657;0.000;0.000;2023-02-15T07:59:13;1.20;;;1.20;;
71810;SDS011;59657;0.000;0.000;2023-02-15T08:01:39;1.60;;;1.50;;
71810;SDS011;59657;0.000;0.000;2023-02-15T08:06:33;1.35;;;1.35;;
71810;SDS011;59657;0.000;0.000;2023-02-15T08:09:02;1.63;;;1.63;;
71810;SDS011;59657;0.000;0.000;2023-02-15T08:11:30;1.27;;;1.27;;
71810;SDS011;59657;0.000;0.000;2023-02-15T08:13:59;1.30;;;1.30;;
71810;SDS011;59657;0.000;0.000;2023-02-15T08:16:32;1.42;;;1.42;;
71810;SDS011;59657;0.000;0.000;2023-02-15T08:19:01;1.33;;;1.33;;
71810;SDS011;59657;0.000;0.000;2023-02-15T08:21:28;1.27;;;1.23;;
71810;SDS011;59657;0.000;0.000;2023-02-15T08:23:55;1.30;;;1.30;;
71810;SDS011;59657;0.000;0.000;2023-02-15T08:26:22;1.17;;;1.15;;
71810;SDS011;59657;0.000;0.000;2023-02-15T08:28:50;1.30;;;1.30;;
71810;SDS011;59657;0.000;0.000;2023-02-15T08:31:17;1.30;;;1.25;;
71810;SDS011;59657;0.000;0.000;2023-02-15T08:36:11;1.38;;;1.38;;
71810;SDS011;59657;0.000;0.000;2023-02-15T08:38:38;1.20;;;1.17;;
71810;SDS011;59657;0.000;0.000;2023-02-15T08:43:42;1.30;;;1.27;;
71810;SDS011;59657;0.000;0.000;2023-02-15T08:46:09;1.20;;;1.20;;
71810;SDS011;59657;0.000;0.000;2023-02-15T08:48:36;1.65;;;1.27;;
71810;SDS011;59657;0.000;0.000;2023-02-15T08:51:13;1.17;;;1.17;;
71810;SDS011;59657;0.000;0.000;2023-02-15T08:53:43;1.25;;;1.25;;
71810;SDS011;59657;0.000;0.000;2023-02-15T08:56:10;0.98;;;0.98;;
71810;SDS011;59657;0.000;0.000;2023-02-15T08:58:37;1.00;;;1.00;;
71810;SDS011;59657;0.000;0.000;2023-02-15T09:03:46;2.17;;;2.15;;
71810;SDS011;59657;0.000;0.000;2023-02-15T09:06:13;0.98;;;0.98;;
71810;SDS011;59657;0.000;0.000;2023-02-15T09:08:40;0.88;;;0.88;;
71810;SDS011;59657;0.000;0.000;2023-02-15T09:11:08;1.27;;;1.27;;
71810;SDS011;59657;0.000;0.000;2023-02-15T09:13:35;1.08;;;1.08;;
71810;SDS011;59657;0.000;0.000;2023-02-15T09:16:02;1.77;;;1.77;;
71810;SDS011;59657;0.000;0.000;2023-02-15T09:18:30;1.05;;;1.05;;
71810;SDS011;59657;0.000;0.000;2023-02-15T09:21:06;0.95;;;0.95;;
71810;SDS011;59657;0.000;0.000;2023-02-15T09:23:33;1.10;;;1.10;;
71810;SDS011;59657;0.000;0.000;2023-02-15T09:26:01;1.05;;;1.05;;
71810;SDS011;59657;0.000;0.000;2023-02-15T09:28:28;1.15;;;1.15;;
71810;SDS011;59657;0.000;0.000;2023-02-15T09:30:55;1.13;;;1.13;;
71810;SDS011;59657;0.000;0.000;2023-02-15T09:33:22;0.73;;;0.70;;
71810;SDS011;59657;0.000;0.000;2023-02-15T09:35:50;1.13;;;1.13;;
71810;SDS011;59657;0.000;0.000;2023-02-15T09:38:16;1.05;;;1.05;;
71810;SDS011;59657;0.000;0.000;2023-02-15T09:40:44;1.05;;;1.05;;
71810;SDS011;59657;0.000;0.000;2023-02-15T09:43:26;0.98;;;0.98;;
71810;SDS011;59657;0.000;0.000;2023-02-15T09:46:01;1.25;;;1.25;;
71810;SDS011;59657;0.000;0.000;2023-02-15T09:51:16;1.15;;;1.15;;
71810;SDS011;59657;0.000;0.000;2023-02-15T09:53:49;1.05;;;1.05;;
71810;SDS011;59657;0.000;0.000;2023-02-15T09:56:21;1.13;;;1.13;;
71810;SDS011;59657;0.000;0.000;2023-02-15T10:01:39;1.27;;;1.27;;
71810;SDS011;59657;0.000;0.000;2023-02-15T10:09:38;1.00;;;1.00;;
71810;SDS011;59657;0.000;0.000;2023-02-15T10:12:11;0.95;;;0.95;;
71810;SDS011;59657;0.000;0.000;2023-02-15T10:22:57;0.88;;;0.88;;
71810;SDS011;59657;0.000;0.000;2023-02-15T10:25:31;0.98;;;0.98;;
71810;SDS011;59657;0.000;0.000;2023-02-15T10:28:04;0.82;;;0.82;;
71810;SDS011;59657;0.000;0.000;2023-02-15T10:30:48;1.13;;;1.13;;
71810;SDS011;59657;0.000;0.000;2023-02-15T10:33:21;0.95;;;0.95;;
71810;SDS011;59657;0.000;0.000;2023-02-15T10:35:57;0.90;;;0.90;;
71810;SDS011;59657;0.000;0.000;2023-02-15T10:38:36;1.02;;;1.02;;
71810;SDS011;59657;0.000;0.000;2023-02-15T10:43:46;0.90;;;0.90;;
71810;SDS011;59657;0.000;0.000;2023-02-15T10:46:22;0.98;;;0.98;;
71810;SDS011;59657;0.000;0.000;2023-02-15T10:54:22;1.10;;;1.10;;
71810;SDS011;59657;0.000;0.000;2023-02-15T10:57:12;1.20;;;1.20;;
71810;SDS011;59657;0.000;0.000;2023-02-15T10:59:40;1.02;;;1.02;;
71810;SDS011;59657;0.000;0.000;2023-02-15T11:04:55;0.95;;;0.95;;
71810;SDS011;59657;0.000;0.000;2023-02-15T11:07:26;1.17;;;1.17;;
71810;SDS011;59657;0.000;0.000;2023-02-15T11:12:41;1.00;;;0.93;;
71810;SDS011;59657;0.000;0.000;2023-02-15T11:15:19;1.40;;;1.40;;
71810;SDS011;59657;0.000;0.000;2023-02-15T11:17:50;0.85;;;0.85;;
71810;SDS011;59657;0.000;0.000;2023-02-15T11:23:01;0.93;;;0.93;;
71810;SDS011;59657;0.000;0.000;2023-02-15T11:25:30;1.05;;;1.02;;
71810;SDS011;59657;0.000;0.000;2023-02-15T11:27:57;1.20;;;1.20;;
71810;SDS011;59657;0.000;0.000;2023-02-15T11:30:26;1.15;;;1.15;;
71810;SDS011;59657;0.000;0.000;2023-02-15T11:32:55;0.98;;;0.98;;
71810;SDS011;59657;0.000;0.000;2023-02-15T11:40:57;1.10;;;1.10;;
71810;SDS011;59657;0.000;0.000;2023-02-15T11:46:13;1.02;;;1.02;;
71810;SDS011;59657;0.000;0.000;2023-02-15T11:48:40;1.20;;;1.20;;
71810;SDS011;59657;0.000;0.000;2023-02-15T11:51:09;1.10;;;1.10;;
71810;SDS011;59657;0.000;0.000;2023-02-15T11:53:38;1.05;;;1.05;;
71810;SDS011;59657;0.000;0.000;2023-02-15T11:56:05;1.45;;;1.35;;
71810;SDS011;59657;0.000;0.000;2023-02-15T11:58:40;0.88;;;0.88;;
71810;SDS011;59657;0.000;0.000;2023-02-15T12:01:11;1.02;;;1.02;;
71810;SDS011;59657;0.000;0.000;2023-02-15T12:03:51;1.02;;;1.02;;
71810;SDS011;59657;0.000;0.000;2023-02-15T12:06:27;0.98;;;0.98;;
71810;SDS011;59657;0.000;0.000;2023-02-15T12:08:56;0.77;;;0.77;;
71810;SDS011;59657;0.000;0.000;2023-02-15T12:11:28;0.77;;;0.77;;
71810;SDS011;59657;0.000;0.000;2023-02-15T12:13:56;0.88;;;0.88;;
71810;SDS011;59657;0.000;0.000;2023-02-15T12:16:24;0.95;;;0.95;;
71810;SDS011;59657;0.000;0.000;2023-02-15T12:18:52;0.90;;;0.90;;
71810;SDS011;59657;0.000;0.000;2023-02-15T12:21:28;0.93;;;0.93;;
71810;SDS011;59657;0.000;0.000;2023-02-15T12:23:56;0.85;;;0.85;;
71810;SDS011;59657;0.000;0.000;2023-02-15T12:26:28;0.90;;;0.90;;
71810;SDS011;59657;0.000;0.000;2023-02-15T12:28:57;0.93;;;0.93;;
71810;SDS011;59657;0.000;0.000;2023-02-15T12:31:31;1.02;;;1.02;;
71810;SDS011;59657;0.000;0.000;2023-02-15T12:33:59;0.93;;;0.93;;
71810;SDS011;59657;0.000;0.000;2023-02-15T12:36:29;0.77;;;0.77;;
71810;SDS011;59657;0.000;0.000;2023-02-15T12:41:44;1.17;;;1.17;;
71810;SDS011;59657;0.000;0.000;2023-02-15T12:44:28;0.88;;;0.88;;
71810;SDS011;59657;0.000;0.000;2023-02-15T12:46:59;1.08;;;1.08;;
71810;SDS011;59657;0.000;0.000;2023-02-15T12:49:27;0.80;;;0.80;;
71810;SDS011;59657;0.000;0.000;2023-02-15T12:51:55;0.60;;;0.60;;
71810;SDS011;59657;0.000;0.000;2023-02-15T12:54:32;0.88;;;0.88;;
71810;SDS011;59657;0.000;0.000;2023-02-15T12:57:04;0.98;;;0.98;;
71810;SDS011;59657;0.000;0.000;2023-02-15T12:59:56;0.95;;;0.95;;
71810;SDS011;59657;0.000;0.000;2023-02-15T13:02:25;0.98;;;0.98;;
71810;SDS011;59657;0.000;0.000;2023-02-15T13:04:52;0.88;;;0.88;;
71810;SDS011;59657;0.000;0.000;2023-02-15T13:07:19;0.98;;;0.98;;
71810;SDS011;59657;0.000;0.000;2023-02-15T13:09:46;0.70;;;0.70;;
71810;SDS011;59657;0.000;0.000;2023-02-15T13:12:21;0.60;;;0.60;;
71810;SDS011;59657;0.000;0.000;2023-02-15T13:14:51;1.00;;;1.00;;
71810;SDS011;59657;0.000;0.000;2023-02-15T13:17:21;1.00;;;1.00;;
71810;SDS011;59657;0.000;0.000;2023-02-15T13:19:52;0.98;;;0.98;;
71810;SDS011;59657;0.000;0.000;2023-02-15T13:22:33;0.88;;;0.88;;
71810;SDS011;59657;0.000;0.000;2023-02-15T13:25:03;0.90;;;0.90;;
71810;SDS011;59657;0.000;0.000;2023-02-15T13:27:38;1.15;;;1.15;;
71810;SDS011;59657;0.000;0.000;2023-02-15T13:32:43;0.98;;;0.98;;
71810;SDS011;59657;0.000;0.000;2023-02-15T13:35:15;0.88;;;0.88;;
71810;SDS011;59657;0.000;0.000;2023-02-15T13:37:54;0.60;;;0.60;;
71810;SDS011;59657;0.000;0.000;2023-02-15T13:40:25;0.70;;;0.70;;
71810;SDS011;59657;0.000;0.000;2023-02-15T13:42:56;0.93;;;0.93;;
71810;SDS011;59657;0.000;0.000;2023-02-15T13:56:29;1.13;;;1.13;;
71810;SDS011;59657;0.000;0.000;2023-02-15T13:59:01;0.88;;;0.88;;
71810;SDS011;59657;0.000;0.000;2023-02-15T14:04:17;0.75;;;0.75;;
71810;SDS011;59657;0.000;0.000;2023-02-15T14:12:19;0.93;;;0.93;;
71810;SDS011;59657;0.000;0.000;2023-02-15T14:20:20;1.23;;;1.23;;
71810;SDS011;59657;0.000;0.000;2023-02-15T14:22:52;1.05;;;1.05;;
71810;SDS011;59657;0.000;0.000;2023-02-15T14:25:31;1.85;;;1.23;;
71810;SDS011;59657;0.000;0.000;2023-02-15T14:30:43;1.08;;;1.08;;
71810;SDS011;59657;0.000;0.000;2023-02-15T14:33:22;2.10;;;1.38;;
71810;SDS011;59657;0.000;0.000;2023-02-15T14:35:51;1.65;;;1.65;;
71810;SDS011;59657;0.000;0.000;2023-02-15T14:38:28;1.00;;;1.00;;
71810;SDS011;59657;0.000;0.000;2023-02-15T14:40:59;1.20;;;1.20;;
71810;SDS011;59657;0.000;0.000;2023-02-15T14:48:52;0.88;;;0.88;;
71810;SDS011;59657;0.000;0.000;2023-02-15T14:54:01;1.00;;;1.00;;
71810;SDS011;59657;0.000;0.000;2023-02-15T14:58:55;1.23;;;1.23;;
71810;SDS011;59657;0.000;0.000;2023-02-15T15:01:26;1.55;;;1.27;;
71810;SDS011;59657;0.000;0.000;2023-02-15T15:03:54;1.15;;;1.15;;
71810;SDS011;59657;0.000;0.000;2023-02-15T15:06:23;1.63;;;1.52;;
71810;SDS011;59657;0.000;0.000;2023-02-15T15:08:51;1.52;;;1.42;;
71810;SDS011;59657;0.000;0.000;2023-02-15T15:11:41;0.98;;;0.98;;
71810;SDS011;59657;0.000;0.000;2023-02-15T15:14:07;0.82;;;0.82;;
71810;SDS011;59657;0.000;0.000;2023-02-15T15:22:04;1.05;;;1.05;;
71810;SDS011;59657;0.000;0.000;2023-02-15T15:24:46;0.98;;;0.93;;
71810;SDS011;59657;0.000;0.000;2023-02-15T15:29:51;1.27;;;1.17;;
71810;SDS011;59657;0.000;0.000;2023-02-15T15:34:58;1.20;;;1.20;;
71810;SDS011;59657;0.000;0.000;2023-02-15T15:37:38;1.20;;;1.20;;
71810;SDS011;59657;0.000;0.000;2023-02-15T15:40:19;1.58;;;1.58;;
71810;SDS011;59657;0.000;0.000;2023-02-15T15:42:58;1.20;;;1.20;;
71810;SDS011;59657;0.000;0.000;2023-02-15T15:45:34;1.15;;;1.15;;
71810;SDS011;59657;0.000;0.000;2023-02-15T15:48:09;1.30;;;1.20;;
71810;SDS011;59657;0.000;0.000;2023-02-15T15:50:39;1.05;;;1.05;;
71810;SDS011;59657;0.000;0.000;2023-02-15T15:53:06;1.08;;;1.08;;
71810;SDS011;59657;0.000;0.000;2023-02-15T15:55:39;1.10;;;1.10;;
71810;SDS011;59657;0.000;0.000;2023-02-15T15:58:06;0.98;;;0.98;;
71810;SDS011;59657;0.000;0.000;2023-02-15T16:00:35;1.52;;;1.40;;
71810;SDS011;59657;0.000;0.000;2023-02-15T16:03:02;0.85;;;0.85;;
71810;SDS011;59657;0.000;0.000;2023-02-15T16:05:38;1.48;;;1.33;;
71810;SDS011;59657;0.000;0.000;2023-02-15T16:08:04;0.85;;;0.85;;
71810;SDS011;59657;0.000;0.000;2023-02-15T16:10:31;1.15;;;1.15;;
71810;SDS011;59657;0.000;0.000;2023-02-15T16:12:59;1.50;;;1.38;;
71810;SDS011;59657;0.000;0.000;2023-02-15T16:15:31;1.52;;;1.42;;
71810;SDS011;59657;0.000;0.000;2023-02-15T16:18:00;1.27;;;1.27;;
71810;SDS011;59657;0.000;0.000;2023-02-15T16:20:29;0.98;;;0.98;;
71810;SDS011;59657;0.000;0.000;2023-02-15T16:25:46;1.63;;;1.52;;
71810;SDS011;59657;0.000;0.000;2023-02-15T16:28:15;1.15;;;1.15;;
71810;SDS011;59657;0.000;0.000;2023-02-15T16:30:44;0.70;;;0.70;;
71810;SDS011;59657;0.000;0.000;2023-02-15T16:33:12;1.33;;;1.33;;
71810;SDS011;59657;0.000;0.000;2023-02-15T16:35:52;0.82;;;0.82;;
71810;SDS011;59657;0.000;0.000;2023-02-15T16:38:21;0.95;;;0.95;;
71810;SDS011;59657;0.000;0.000;2023-02-15T16:40:54;0.93;;;0.93;;
71810;SDS011;59657;0.000;0.000;2023-02-15T16:43:24;0.93;;;0.93;;
71810;SDS011;59657;0.000;0.000;2023-02-15T16:45:53;0.90;;;0.90;;
71810;SDS011;59657;0.000;0.000;2023-02-15T16:48:21;0.93;;;0.93;;
71810;SDS011;59657;0.000;0.000;2023-02-15T16:50:53;0.73;;;0.73;;
71810;SDS011;59657;0.000;0.000;2023-02-15T16:53:23;0.85;;;0.85;;
71810;SDS011;59657;0.000;0.000;2023-02-15T16:55:52;0.93;;;0.93;;
71810;SDS011;59657;0.000;0.000;2023-02-15T16:58:21;0.82;;;0.82;;
71810;SDS011;59657;0.000;0.000;2023-02-15T17:00:49;0.77;;;0.77;;
71810;SDS011;59657;0.000;0.000;2023-02-15T17:03:21;1.00;;;1.00;;
71810;SDS011;59657;0.000;0.000;2023-02-15T17:05:49;0.90;;;0.90;;
71810;SDS011;59657;0.000;0.000;2023-02-15T17:08:18;0.85;;;0.85;;
71810;SDS011;59657;0.000;0.000;2023-02-15T17:13:22;0.90;;;0.90;;
71810;SDS011;59657;0.000;0.000;2023-02-15T17:16:13;0.75;;;0.75;;
71810;SDS011;59657;0.000;0.000;2023-02-15T17:18:40;0.93;;;0.93;;
71810;SDS011;59657;0.000;0.000;2023-02-15T17:21:12;0.77;;;0.77;;
71810;SDS011;59657;0.000;0.000;2023-02-15T17:23:43;0.93;;;0.93;;
71810;SDS011;59657;0.000;0.000;2023-02-15T17:26:12;0.90;;;0.90;;
71810;SDS011;59657;0.000;0.000;2023-02-15T17:31:23;0.93;;;0.93;;
71810;SDS011;59657;0.000;0.000;2023-02-15T17:33:51;1.02;;;1.02;;
71810;SDS011;59657;0.000;0.000;2023-02-15T17:36:20;0.88;;;0.88;;
71810;SDS011;59657;0.000;0.000;2023-02-15T17:39:04;0.85;;;0.85;;
71810;SDS011;59657;0.000;0.000;2023-02-15T17:41:32;1.33;;;1.25;;
71810;SDS011;59657;0.000;0.000;2023-02-15T17:44:00;1.10;;;0.85;;
71810;SDS011;59657;0.000;0.000;2023-02-15T17:46:27;0.88;;;0.88;;
71810;SDS011;59657;0.000;0.000;2023-02-15T17:48:56;0.95;;;0.95;;
71810;SDS011;59657;0.000;0.000;2023-02-15T17:51:22;0.90;;;0.90;;
71810;SDS011;59657;0.000;0.000;2023-02-15T17:53:49;0.50;;;0.50;;
71810;SDS011;59657;0.000;0.000;2023-02-15T17:56:31;1.00;;;0.98;;
71810;SDS011;59657;0.000;0.000;2023-02-15T17:58:58;1.23;;;1.10;;